Estancia Velha, Brazil
Current Conditions -  °F | °C
As of 7:00 AM on Thursday 23 Oct 2014 (Local Time) from SBCO Reporting Station
Clear Clear  
Wind Chill: 57°   Ceiling: Unl
Heat Index: 57°   Visibility: 4mi
Dew Point: 57°   Wind: 1mph
Humidity: 100%   Direction: 20°NNE
Pressure: 30.06"   Gusts: NA
Location:  29.65°S, 51.17°W
Report Text: SBCO 230900Z 02001KT 7000 NSC 14/14 Q1018
Loading
Personal Weather Stations






























Interactive Weather Map
Tropical Storm Tracking
New forecast layout! Learn more

10-Day Weather Forecast

Advertisements
Track Severe Weather on mobile